sensor_id;sensor_type;location;lat;lon;timestamp;temperature;humidity
58339;DHT22;48278;52.704;6.536;2022-09-27T00:00:26;10.00;99.90
58339;DHT22;48278;52.704;6.536;2022-09-27T00:02:52;10.00;99.90
58339;DHT22;48278;52.704;6.536;2022-09-27T00:05:17;10.00;99.90
58339;DHT22;48278;52.704;6.536;2022-09-27T00:07:43;9.90;99.90
58339;DHT22;48278;52.704;6.536;2022-09-27T00:10:10;9.80;99.90
58339;DHT22;48278;52.704;6.536;2022-09-27T00:12:37;9.60;99.90
58339;DHT22;48278;52.704;6.536;2022-09-27T00:15:03;9.50;99.90
58339;DHT22;48278;52.704;6.536;2022-09-27T00:17:30;9.50;99.90
58339;DHT22;48278;52.704;6.536;2022-09-27T00:19:58;9.40;99.90
58339;DHT22;48278;52.704;6.536;2022-09-27T00:22:25;9.40;99.90
58339;DHT22;48278;52.704;6.536;2022-09-27T00:24:51;9.30;99.90
58339;DHT22;48278;52.704;6.536;2022-09-27T00:27:17;9.20;99.90
58339;DHT22;48278;52.704;6.536;2022-09-27T00:29:44;9.20;99.90
58339;DHT22;48278;52.704;6.536;2022-09-27T00:32:10;9.10;99.90
58339;DHT22;48278;52.704;6.536;2022-09-27T00:34:35;9.10;99.90
58339;DHT22;48278;52.704;6.536;2022-09-27T00:37:02;9.00;99.90
58339;DHT22;48278;52.704;6.536;2022-09-27T00:39:27;9.00;99.90
58339;DHT22;48278;52.704;6.536;2022-09-27T00:41:53;9.00;99.90
58339;DHT22;48278;52.704;6.536;2022-09-27T00:49:47;8.90;99.90
58339;DHT22;48278;52.704;6.536;2022-09-27T00:52:25;8.90;99.90
58339;DHT22;48278;52.704;6.536;2022-09-27T00:54:56;8.90;99.90
58339;DHT22;48278;52.704;6.536;2022-09-27T00:57:23;9.00;99.90
58339;DHT22;48278;52.704;6.536;2022-09-27T00:59:53;9.00;99.90
58339;DHT22;48278;52.704;6.536;2022-09-27T01:02:22;9.10;99.90
58339;DHT22;48278;52.704;6.536;2022-09-27T01:04:48;9.10;99.90
58339;DHT22;48278;52.704;6.536;2022-09-27T01:07:14;9.10;99.90
58339;DHT22;48278;52.704;6.536;2022-09-27T01:09:40;9.20;99.90
58339;DHT22;48278;52.704;6.536;2022-09-27T01:12:22;9.20;99.90
58339;DHT22;48278;52.704;6.536;2022-09-27T01:17:32;9.30;99.90
58339;DHT22;48278;52.704;6.536;2022-09-27T01:31:13;9.40;99.90
58339;DHT22;48278;52.704;6.536;2022-09-27T01:36:25;9.40;99.90
58339;DHT22;48278;52.704;6.536;2022-09-27T01:41:35;9.40;99.90
58339;DHT22;48278;52.704;6.536;2022-09-27T01:44:08;9.40;99.90
58339;DHT22;48278;52.704;6.536;2022-09-27T01:46:39;9.40;99.90
58339;DHT22;48278;52.704;6.536;2022-09-27T01:49:15;9.30;99.90
58339;DHT22;48278;52.704;6.536;2022-09-27T01:51:51;9.20;99.90
58339;DHT22;48278;52.704;6.536;2022-09-27T01:54:25;9.20;99.90
58339;DHT22;48278;52.704;6.536;2022-09-27T01:56:56;9.20;99.90
58339;DHT22;48278;52.704;6.536;2022-09-27T01:59:24;9.20;99.90
58339;DHT22;48278;52.704;6.536;2022-09-27T02:01:57;9.10;99.90
58339;DHT22;48278;52.704;6.536;2022-09-27T02:04:28;9.10;99.90
58339;DHT22;48278;52.704;6.536;2022-09-27T02:07:09;9.00;99.90
58339;DHT22;48278;52.704;6.536;2022-09-27T02:10:00;9.00;99.90
58339;DHT22;48278;52.704;6.536;2022-09-27T02:12:30;9.00;99.90
58339;DHT22;48278;52.704;6.536;2022-09-27T02:15:05;9.00;99.90
58339;DHT22;48278;52.704;6.536;2022-09-27T02:17:41;8.90;99.90
58339;DHT22;48278;52.704;6.536;2022-09-27T02:22:51;8.90;99.90
58339;DHT22;48278;52.704;6.536;2022-09-27T02:25:37;9.00;99.90
58339;DHT22;48278;52.704;6.536;2022-09-27T02:30:46;9.00;99.90
58339;DHT22;48278;52.704;6.536;2022-09-27T02:33:12;9.00;99.90
58339;DHT22;48278;52.704;6.536;2022-09-27T02:35:38;9.00;99.90
58339;DHT22;48278;52.704;6.536;2022-09-27T02:38:06;9.00;99.90
58339;DHT22;48278;52.704;6.536;2022-09-27T02:40:34;9.20;99.90
58339;DHT22;48278;52.704;6.536;2022-09-27T02:43:02;9.10;99.90
58339;DHT22;48278;52.704;6.536;2022-09-27T02:45:34;9.10;99.90
58339;DHT22;48278;52.704;6.536;2022-09-27T02:56:49;9.00;99.90
58339;DHT22;48278;52.704;6.536;2022-09-27T03:02:11;9.00;99.90
58339;DHT22;48278;52.704;6.536;2022-09-27T03:05:06;8.90;99.90
58339;DHT22;48278;52.704;6.536;2022-09-27T03:07:33;8.80;99.90
58339;DHT22;48278;52.704;6.536;2022-09-27T03:09:59;8.80;99.90
58339;DHT22;48278;52.704;6.536;2022-09-27T03:12:25;8.80;99.90
58339;DHT22;48278;52.704;6.536;2022-09-27T03:14:53;8.70;99.90
58339;DHT22;48278;52.704;6.536;2022-09-27T03:17:19;8.70;99.90
58339;DHT22;48278;52.704;6.536;2022-09-27T03:19:45;8.70;99.90
58339;DHT22;48278;52.704;6.536;2022-09-27T03:22:11;8.70;99.90
58339;DHT22;48278;52.704;6.536;2022-09-27T03:24:36;8.70;99.90
58339;DHT22;48278;52.704;6.536;2022-09-27T03:27:02;8.70;99.90
58339;DHT22;48278;52.704;6.536;2022-09-27T03:29:28;8.70;99.90
58339;DHT22;48278;52.704;6.536;2022-09-27T03:31:53;8.70;99.90
58339;DHT22;48278;52.704;6.536;2022-09-27T03:34:19;8.60;99.90
58339;DHT22;48278;52.704;6.536;2022-09-27T03:36:45;8.70;99.90
58339;DHT22;48278;52.704;6.536;2022-09-27T03:39:10;8.70;99.90
58339;DHT22;48278;52.704;6.536;2022-09-27T03:41:36;8.70;99.90
58339;DHT22;48278;52.704;6.536;2022-09-27T03:44:02;8.70;99.90
58339;DHT22;48278;52.704;6.536;2022-09-27T03:46:28;8.70;99.90
58339;DHT22;48278;52.704;6.536;2022-09-27T03:48:54;8.60;99.90
58339;DHT22;48278;52.704;6.536;2022-09-27T03:51:20;8.60;99.90
58339;DHT22;48278;52.704;6.536;2022-09-27T03:53:45;8.60;99.90
58339;DHT22;48278;52.704;6.536;2022-09-27T03:56:11;8.50;99.90
58339;DHT22;48278;52.704;6.536;2022-09-27T03:58:37;8.50;99.90
58339;DHT22;48278;52.704;6.536;2022-09-27T04:01:03;8.50;99.90
58339;DHT22;48278;52.704;6.536;2022-09-27T04:03:29;8.50;99.90
58339;DHT22;48278;52.704;6.536;2022-09-27T04:05:54;8.50;99.90
58339;DHT22;48278;52.704;6.536;2022-09-27T04:08:20;8.50;99.90
58339;DHT22;48278;52.704;6.536;2022-09-27T04:10:49;8.40;99.90
58339;DHT22;48278;52.704;6.536;2022-09-27T04:13:14;8.40;99.90
58339;DHT22;48278;52.704;6.536;2022-09-27T04:15:41;8.40;99.90
58339;DHT22;48278;52.704;6.536;2022-09-27T04:18:07;8.40;99.90
58339;DHT22;48278;52.704;6.536;2022-09-27T04:20:39;8.40;99.90
58339;DHT22;48278;52.704;6.536;2022-09-27T04:23:05;8.40;99.90
58339;DHT22;48278;52.704;6.536;2022-09-27T04:25:31;8.40;99.90
58339;DHT22;48278;52.704;6.536;2022-09-27T04:27:58;8.30;99.90
58339;DHT22;48278;52.704;6.536;2022-09-27T04:30:24;8.30;99.90
58339;DHT22;48278;52.704;6.536;2022-09-27T04:32:50;8.20;99.90
58339;DHT22;48278;52.704;6.536;2022-09-27T04:35:17;8.30;99.90
58339;DHT22;48278;52.704;6.536;2022-09-27T04:38:01;8.20;99.90
58339;DHT22;48278;52.704;6.536;2022-09-27T04:40:27;8.20;99.90
58339;DHT22;48278;52.704;6.536;2022-09-27T04:42:53;8.20;99.90
58339;DHT22;48278;52.704;6.536;2022-09-27T04:45:19;8.10;99.90
58339;DHT22;48278;52.704;6.536;2022-09-27T04:47:49;8.10;99.90
58339;DHT22;48278;52.704;6.536;2022-09-27T04:50:15;8.00;99.90
58339;DHT22;48278;52.704;6.536;2022-09-27T04:52:42;7.90;99.90
58339;DHT22;48278;52.704;6.536;2022-09-27T04:55:08;7.90;99.90
58339;DHT22;48278;52.704;6.536;2022-09-27T04:57:34;7.80;99.90
58339;DHT22;48278;52.704;6.536;2022-09-27T05:00:00;7.80;99.90
58339;DHT22;48278;52.704;6.536;2022-09-27T05:02:26;7.70;99.90
58339;DHT22;48278;52.704;6.536;2022-09-27T05:04:53;7.60;99.90
58339;DHT22;48278;52.704;6.536;2022-09-27T05:07:22;7.60;99.90
58339;DHT22;48278;52.704;6.536;2022-09-27T05:09:48;7.60;99.90
58339;DHT22;48278;52.704;6.536;2022-09-27T05:12:14;7.50;99.90
58339;DHT22;48278;52.704;6.536;2022-09-27T05:14:39;7.40;99.90
58339;DHT22;48278;52.704;6.536;2022-09-27T05:17:06;7.40;99.90
58339;DHT22;48278;52.704;6.536;2022-09-27T05:19:33;7.30;99.90
58339;DHT22;48278;52.704;6.536;2022-09-27T05:21:58;7.30;99.90
58339;DHT22;48278;52.704;6.536;2022-09-27T05:24:24;7.30;99.90
58339;DHT22;48278;52.704;6.536;2022-09-27T05:26:53;7.30;99.90
58339;DHT22;48278;52.704;6.536;2022-09-27T05:29:18;7.30;99.90
58339;DHT22;48278;52.704;6.536;2022-09-27T05:31:44;7.30;99.90
58339;DHT22;48278;52.704;6.536;2022-09-27T05:34:10;7.20;99.90
58339;DHT22;48278;52.704;6.536;2022-09-27T05:36:36;7.20;99.90
58339;DHT22;48278;52.704;6.536;2022-09-27T05:39:03;7.20;99.90
58339;DHT22;48278;52.704;6.536;2022-09-27T05:41:29;7.20;99.90
58339;DHT22;48278;52.704;6.536;2022-09-27T05:43:57;7.20;99.90
58339;DHT22;48278;52.704;6.536;2022-09-27T05:46:23;7.20;99.90
58339;DHT22;48278;52.704;6.536;2022-09-27T05:48:48;7.20;99.90
58339;DHT22;48278;52.704;6.536;2022-09-27T05:51:14;7.10;99.90
58339;DHT22;48278;52.704;6.536;2022-09-27T05:53:40;7.10;99.90
58339;DHT22;48278;52.704;6.536;2022-09-27T05:56:06;7.10;99.90
58339;DHT22;48278;52.704;6.536;2022-09-27T05:58:32;7.20;99.90
58339;DHT22;48278;52.704;6.536;2022-09-27T06:00:59;7.20;99.90
58339;DHT22;48278;52.704;6.536;2022-09-27T06:03:24;7.20;99.90
58339;DHT22;48278;52.704;6.536;2022-09-27T06:05:50;7.20;99.90
58339;DHT22;48278;52.704;6.536;2022-09-27T06:08:16;7.20;99.90
58339;DHT22;48278;52.704;6.536;2022-09-27T06:10:43;7.20;99.90
58339;DHT22;48278;52.704;6.536;2022-09-27T06:13:11;7.30;99.90
58339;DHT22;48278;52.704;6.536;2022-09-27T06:15:39;7.20;99.90
58339;DHT22;48278;52.704;6.536;2022-09-27T06:18:10;7.30;99.90
58339;DHT22;48278;52.704;6.536;2022-09-27T06:20:38;7.20;99.90
58339;DHT22;48278;52.704;6.536;2022-09-27T06:23:05;7.40;99.90
58339;DHT22;48278;52.704;6.536;2022-09-27T06:25:32;7.50;99.90
58339;DHT22;48278;52.704;6.536;2022-09-27T06:27:58;7.60;99.90
58339;DHT22;48278;52.704;6.536;2022-09-27T06:30:24;7.70;99.90
58339;DHT22;48278;52.704;6.536;2022-09-27T06:32:58;7.90;99.90
58339;DHT22;48278;52.704;6.536;2022-09-27T06:35:26;8.00;99.90
58339;DHT22;48278;52.704;6.536;2022-09-27T06:37:53;8.10;99.90
58339;DHT22;48278;52.704;6.536;2022-09-27T06:40:19;8.10;99.90
58339;DHT22;48278;52.704;6.536;2022-09-27T06:42:45;8.20;99.90
58339;DHT22;48278;52.704;6.536;2022-09-27T06:45:11;8.30;99.90
58339;DHT22;48278;52.704;6.536;2022-09-27T06:47:38;8.40;99.90
58339;DHT22;48278;52.704;6.536;2022-09-27T06:50:04;8.50;99.90
58339;DHT22;48278;52.704;6.536;2022-09-27T06:52:31;8.70;99.90
58339;DHT22;48278;52.704;6.536;2022-09-27T06:54:57;8.80;99.90
58339;DHT22;48278;52.704;6.536;2022-09-27T06:57:23;9.00;99.90
58339;DHT22;48278;52.704;6.536;2022-09-27T07:00:09;9.10;99.90
58339;DHT22;48278;52.704;6.536;2022-09-27T07:02:56;9.20;99.90
58339;DHT22;48278;52.704;6.536;2022-09-27T07:05:26;9.30;99.90
58339;DHT22;48278;52.704;6.536;2022-09-27T07:07:51;9.30;99.90
58339;DHT22;48278;52.704;6.536;2022-09-27T07:10:26;9.40;99.90
58339;DHT22;48278;52.704;6.536;2022-09-27T07:12:53;9.40;99.90
58339;DHT22;48278;52.704;6.536;2022-09-27T07:15:20;9.40;99.90
58339;DHT22;48278;52.704;6.536;2022-09-27T07:17:47;9.40;99.90
58339;DHT22;48278;52.704;6.536;2022-09-27T07:20:13;9.40;99.90
58339;DHT22;48278;52.704;6.536;2022-09-27T07:22:42;9.50;99.90
58339;DHT22;48278;52.704;6.536;2022-09-27T07:25:09;9.40;99.90
58339;DHT22;48278;52.704;6.536;2022-09-27T07:27:35;9.60;99.90
58339;DHT22;48278;52.704;6.536;2022-09-27T07:30:01;9.70;99.90
58339;DHT22;48278;52.704;6.536;2022-09-27T07:32:27;9.70;99.90
58339;DHT22;48278;52.704;6.536;2022-09-27T07:34:52;9.80;99.90
58339;DHT22;48278;52.704;6.536;2022-09-27T07:37:18;9.80;99.90
58339;DHT22;48278;52.704;6.536;2022-09-27T07:39:44;9.80;99.90
58339;DHT22;48278;52.704;6.536;2022-09-27T07:42:10;9.90;99.90
58339;DHT22;48278;52.704;6.536;2022-09-27T07:44:35;10.00;99.90
58339;DHT22;48278;52.704;6.536;2022-09-27T07:47:01;10.20;99.90
58339;DHT22;48278;52.704;6.536;2022-09-27T07:49:27;10.40;99.90
58339;DHT22;48278;52.704;6.536;2022-09-27T07:51:52;10.50;99.90
58339;DHT22;48278;52.704;6.536;2022-09-27T07:54:18;10.80;99.90
58339;DHT22;48278;52.704;6.536;2022-09-27T07:56:44;10.90;99.90
58339;DHT22;48278;52.704;6.536;2022-09-27T07:59:10;11.10;99.90
58339;DHT22;48278;52.704;6.536;2022-09-27T08:01:36;11.20;99.90
58339;DHT22;48278;52.704;6.536;2022-09-27T08:04:01;11.30;99.90
58339;DHT22;48278;52.704;6.536;2022-09-27T08:06:28;11.30;99.90
58339;DHT22;48278;52.704;6.536;2022-09-27T08:08:54;11.40;99.90
58339;DHT22;48278;52.704;6.536;2022-09-27T08:11:20;11.50;99.90
58339;DHT22;48278;52.704;6.536;2022-09-27T08:13:46;11.60;99.90
58339;DHT22;48278;52.704;6.536;2022-09-27T08:16:14;11.60;99.90
58339;DHT22;48278;52.704;6.536;2022-09-27T08:18:43;11.60;99.90
58339;DHT22;48278;52.704;6.536;2022-09-27T08:21:11;11.70;99.90
58339;DHT22;48278;52.704;6.536;2022-09-27T08:23:37;11.80;99.90
58339;DHT22;48278;52.704;6.536;2022-09-27T08:26:03;11.90;99.90
58339;DHT22;48278;52.704;6.536;2022-09-27T08:28:29;12.00;99.90
58339;DHT22;48278;52.704;6.536;2022-09-27T08:30:57;12.10;99.90
58339;DHT22;48278;52.704;6.536;2022-09-27T08:33:25;12.20;99.90
58339;DHT22;48278;52.704;6.536;2022-09-27T08:35:51;12.30;99.90
58339;DHT22;48278;52.704;6.536;2022-09-27T08:38:17;12.40;99.90
58339;DHT22;48278;52.704;6.536;2022-09-27T08:49:02;12.60;99.90
58339;DHT22;48278;52.704;6.536;2022-09-27T08:51:31;12.70;99.90
58339;DHT22;48278;52.704;6.536;2022-09-27T08:54:04;12.80;99.90
58339;DHT22;48278;52.704;6.536;2022-09-27T08:56:31;12.90;99.90
58339;DHT22;48278;52.704;6.536;2022-09-27T08:59:12;12.70;99.90
58339;DHT22;48278;52.704;6.536;2022-09-27T09:01:39;12.70;99.90
58339;DHT22;48278;52.704;6.536;2022-09-27T09:04:06;12.60;99.90
58339;DHT22;48278;52.704;6.536;2022-09-27T09:28:19;13.60;99.90
58339;DHT22;48278;52.704;6.536;2022-09-27T09:31:06;13.20;99.90
58339;DHT22;48278;52.704;6.536;2022-09-27T09:33:37;12.80;99.90
58339;DHT22;48278;52.704;6.536;2022-09-27T09:38:41;11.80;99.90
58339;DHT22;48278;52.704;6.536;2022-09-27T09:47:33;10.90;99.90
58339;DHT22;48278;52.704;6.536;2022-09-27T09:50:30;11.00;99.90
58339;DHT22;48278;52.704;6.536;2022-09-27T09:53:20;11.00;99.90
58339;DHT22;48278;52.704;6.536;2022-09-27T09:59:22;11.20;99.90
58339;DHT22;48278;52.704;6.536;2022-09-27T10:01:49;11.20;99.90
58339;DHT22;48278;52.704;6.536;2022-09-27T10:04:27;11.20;99.90
58339;DHT22;48278;52.704;6.536;2022-09-27T10:06:56;11.30;99.90
58339;DHT22;48278;52.704;6.536;2022-09-27T10:09:24;11.40;99.90
58339;DHT22;48278;52.704;6.536;2022-09-27T10:11:51;11.40;99.90
58339;DHT22;48278;52.704;6.536;2022-09-27T10:14:19;11.40;99.90
58339;DHT22;48278;52.704;6.536;2022-09-27T10:16:48;11.40;99.90
58339;DHT22;48278;52.704;6.536;2022-09-27T10:19:25;11.40;99.90
58339;DHT22;48278;52.704;6.536;2022-09-27T10:21:51;11.40;99.90
58339;DHT22;48278;52.704;6.536;2022-09-27T10:24:17;11.40;99.90
58339;DHT22;48278;52.704;6.536;2022-09-27T10:26:47;11.40;99.90
58339;DHT22;48278;52.704;6.536;2022-09-27T10:31:49;11.70;99.90
58339;DHT22;48278;52.704;6.536;2022-09-27T10:34:27;11.90;99.90
58339;DHT22;48278;52.704;6.536;2022-09-27T10:37:16;12.20;99.90
58339;DHT22;48278;52.704;6.536;2022-09-27T10:39:46;12.40;99.90
58339;DHT22;48278;52.704;6.536;2022-09-27T10:42:36;12.60;99.90
58339;DHT22;48278;52.704;6.536;2022-09-27T10:45:31;12.70;99.90
58339;DHT22;48278;52.704;6.536;2022-09-27T10:48:01;12.80;99.90
58339;DHT22;48278;52.704;6.536;2022-09-27T10:50:30;12.90;99.90
58339;DHT22;48278;52.704;6.536;2022-09-27T10:53:16;12.90;99.90
58339;DHT22;48278;52.704;6.536;2022-09-27T10:55:48;12.80;99.90
58339;DHT22;48278;52.704;6.536;2022-09-27T11:01:06;12.90;99.90
58339;DHT22;48278;52.704;6.536;2022-09-27T11:03:54;13.00;99.90
58339;DHT22;48278;52.704;6.536;2022-09-27T11:08:51;12.30;99.90
58339;DHT22;48278;52.704;6.536;2022-09-27T11:11:26;11.80;99.90
58339;DHT22;48278;52.704;6.536;2022-09-27T11:13:59;11.40;99.90
58339;DHT22;48278;52.704;6.536;2022-09-27T11:36:50;11.00;99.90
58339;DHT22;48278;52.704;6.536;2022-09-27T11:48:14;11.00;99.90
58339;DHT22;48278;52.704;6.536;2022-09-27T11:59:27;11.20;99.90
58339;DHT22;48278;52.704;6.536;2022-09-27T12:02:04;11.30;99.90
58339;DHT22;48278;52.704;6.536;2022-09-27T12:09:47;11.60;99.90
58339;DHT22;48278;52.704;6.536;2022-09-27T12:12:21;11.70;99.90
58339;DHT22;48278;52.704;6.536;2022-09-27T12:14:49;11.80;99.90
58339;DHT22;48278;52.704;6.536;2022-09-27T12:17:25;11.90;99.90
58339;DHT22;48278;52.704;6.536;2022-09-27T12:19:54;12.10;99.90
58339;DHT22;48278;52.704;6.536;2022-09-27T12:22:31;12.30;99.90
58339;DHT22;48278;52.704;6.536;2022-09-27T12:24:58;12.30;99.90
58339;DHT22;48278;52.704;6.536;2022-09-27T12:27:36;12.50;99.90
58339;DHT22;48278;52.704;6.536;2022-09-27T12:30:03;12.60;99.90
58339;DHT22;48278;52.704;6.536;2022-09-27T12:32:43;12.70;99.90
58339;DHT22;48278;52.704;6.536;2022-09-27T12:35:28;12.90;99.90
58339;DHT22;48278;52.704;6.536;2022-09-27T12:38:05;13.00;99.90
58339;DHT22;48278;52.704;6.536;2022-09-27T12:40:38;13.10;99.90
58339;DHT22;48278;52.704;6.536;2022-09-27T12:51:11;13.50;99.90
58339;DHT22;48278;52.704;6.536;2022-09-27T13:05:25;13.70;99.90
58339;DHT22;48278;52.704;6.536;2022-09-27T13:13:36;13.30;99.90
58339;DHT22;48278;52.704;6.536;2022-09-27T13:16:05;13.20;99.90
58339;DHT22;48278;52.704;6.536;2022-09-27T13:21:07;12.80;99.90
58339;DHT22;48278;52.704;6.536;2022-09-27T13:29:00;12.40;99.90
58339;DHT22;48278;52.704;6.536;2022-09-27T13:32:10;12.40;99.90
58339;DHT22;48278;52.704;6.536;2022-09-27T13:42:48;12.40;99.90
58339;DHT22;48278;52.704;6.536;2022-09-27T13:45:25;12.40;99.90
58339;DHT22;48278;52.704;6.536;2022-09-27T13:47:54;12.40;99.90
58339;DHT22;48278;52.704;6.536;2022-09-27T13:50:26;12.30;99.90
58339;DHT22;48278;52.704;6.536;2022-09-27T13:55:48;12.50;99.90
58339;DHT22;48278;52.704;6.536;2022-09-27T14:04:03;12.50;99.90
58339;DHT22;48278;52.704;6.536;2022-09-27T14:06:33;12.50;99.90
58339;DHT22;48278;52.704;6.536;2022-09-27T14:09:19;12.50;99.90
58339;DHT22;48278;52.704;6.536;2022-09-27T14:11:51;12.50;99.90
58339;DHT22;48278;52.704;6.536;2022-09-27T14:14:21;12.40;99.90
58339;DHT22;48278;52.704;6.536;2022-09-27T14:16:48;12.50;99.90
58339;DHT22;48278;52.704;6.536;2022-09-27T14:19:18;12.60;99.90
58339;DHT22;48278;52.704;6.536;2022-09-27T14:21:48;12.60;99.90
58339;DHT22;48278;52.704;6.536;2022-09-27T14:29:31;12.70;99.90
58339;DHT22;48278;52.704;6.536;2022-09-27T14:32:05;12.90;99.90
58339;DHT22;48278;52.704;6.536;2022-09-27T14:34:33;12.70;99.90
58339;DHT22;48278;52.704;6.536;2022-09-27T14:36:59;12.80;99.90
58339;DHT22;48278;52.704;6.536;2022-09-27T14:39:44;12.60;99.90
58339;DHT22;48278;52.704;6.536;2022-09-27T14:42:22;12.80;99.90
58339;DHT22;48278;52.704;6.536;2022-09-27T14:44:50;12.80;99.90
58339;DHT22;48278;52.704;6.536;2022-09-27T14:47:21;12.80;99.90
58339;DHT22;48278;52.704;6.536;2022-09-27T14:49:52;12.70;99.90
58339;DHT22;48278;52.704;6.536;2022-09-27T14:52:22;12.70;99.90
58339;DHT22;48278;52.704;6.536;2022-09-27T14:55:28;12.70;99.90
58339;DHT22;48278;52.704;6.536;2022-09-27T14:57:59;12.70;99.90
58339;DHT22;48278;52.704;6.536;2022-09-27T15:00:27;12.60;99.90
58339;DHT22;48278;52.704;6.536;2022-09-27T15:02:59;12.60;99.90
58339;DHT22;48278;52.704;6.536;2022-09-27T15:05:28;12.60;99.90
58339;DHT22;48278;52.704;6.536;2022-09-27T15:07:56;12.50;99.90
58339;DHT22;48278;52.704;6.536;2022-09-27T15:10:26;12.40;99.90
58339;DHT22;48278;52.704;6.536;2022-09-27T15:12:54;12.30;99.90
58339;DHT22;48278;52.704;6.536;2022-09-27T15:15:27;12.30;99.90
58339;DHT22;48278;52.704;6.536;2022-09-27T15:17:57;12.20;99.90
58339;DHT22;48278;52.704;6.536;2022-09-27T15:22:56;12.10;99.90
58339;DHT22;48278;52.704;6.536;2022-09-27T15:25:35;12.10;99.90
58339;DHT22;48278;52.704;6.536;2022-09-27T15:28:05;12.10;99.90
58339;DHT22;48278;52.704;6.536;2022-09-27T15:30:40;12.00;99.90
58339;DHT22;48278;52.704;6.536;2022-09-27T15:33:27;12.00;99.90
58339;DHT22;48278;52.704;6.536;2022-09-27T15:36:02;11.90;99.90
58339;DHT22;48278;52.704;6.536;2022-09-27T15:38:38;11.80;99.90
58339;DHT22;48278;52.704;6.536;2022-09-27T15:41:11;11.80;99.90
58339;DHT22;48278;52.704;6.536;2022-09-27T15:43:40;11.70;99.90
58339;DHT22;48278;52.704;6.536;2022-09-27T15:51:46;11.60;99.90
58339;DHT22;48278;52.704;6.536;2022-09-27T15:54:12;11.70;99.90
58339;DHT22;48278;52.704;6.536;2022-09-27T15:56:38;11.60;99.90
58339;DHT22;48278;52.704;6.536;2022-09-27T15:59:05;11.60;99.90
58339;DHT22;48278;52.704;6.536;2022-09-27T16:01:32;11.60;99.90
58339;DHT22;48278;52.704;6.536;2022-09-27T16:04:08;12.10;99.90
58339;DHT22;48278;52.704;6.536;2022-09-27T16:06:34;11.60;99.90
58339;DHT22;48278;52.704;6.536;2022-09-27T16:08:59;11.60;99.90
58339;DHT22;48278;52.704;6.536;2022-09-27T16:11:25;11.60;99.90
58339;DHT22;48278;52.704;6.536;2022-09-27T16:13:51;11.50;99.90
58339;DHT22;48278;52.704;6.536;2022-09-27T16:16:18;11.50;99.90
58339;DHT22;48278;52.704;6.536;2022-09-27T16:18:45;11.30;99.90
58339;DHT22;48278;52.704;6.536;2022-09-27T16:21:11;11.30;99.90
58339;DHT22;48278;52.704;6.536;2022-09-27T16:23:37;11.10;99.90
58339;DHT22;48278;52.704;6.536;2022-09-27T16:26:04;11.50;99.90
58339;DHT22;48278;52.704;6.536;2022-09-27T16:28:30;11.10;99.90
58339;DHT22;48278;52.704;6.536;2022-09-27T16:31:01;11.10;99.90
58339;DHT22;48278;52.704;6.536;2022-09-27T16:33:28;11.10;99.90
58339;DHT22;48278;52.704;6.536;2022-09-27T16:35:56;11.10;99.90
58339;DHT22;48278;52.704;6.536;2022-09-27T16:38:22;11.10;99.90
58339;DHT22;48278;52.704;6.536;2022-09-27T16:40:51;11.00;99.90
58339;DHT22;48278;52.704;6.536;2022-09-27T16:43:17;11.00;99.90
58339;DHT22;48278;52.704;6.536;2022-09-27T16:45:45;10.90;99.90
58339;DHT22;48278;52.704;6.536;2022-09-27T16:48:10;10.90;99.90
58339;DHT22;48278;52.704;6.536;2022-09-27T16:50:36;10.90;99.90
58339;DHT22;48278;52.704;6.536;2022-09-27T16:53:20;10.80;99.90
58339;DHT22;48278;52.704;6.536;2022-09-27T16:55:47;10.80;99.90
58339;DHT22;48278;52.704;6.536;2022-09-27T16:58:16;10.70;99.90
58339;DHT22;48278;52.704;6.536;2022-09-27T17:00:42;10.70;99.90
58339;DHT22;48278;52.704;6.536;2022-09-27T17:03:08;10.60;99.90
58339;DHT22;48278;52.704;6.536;2022-09-27T17:05:34;10.70;99.90
58339;DHT22;48278;52.704;6.536;2022-09-27T17:08:00;10.40;99.90
58339;DHT22;48278;52.704;6.536;2022-09-27T17:10:26;10.40;99.90
58339;DHT22;48278;52.704;6.536;2022-09-27T17:12:51;10.30;99.90
58339;DHT22;48278;52.704;6.536;2022-09-27T17:15:17;10.30;99.90
58339;DHT22;48278;52.704;6.536;2022-09-27T17:17:47;10.20;99.90
58339;DHT22;48278;52.704;6.536;2022-09-27T17:20:13;10.10;99.90
58339;DHT22;48278;52.704;6.536;2022-09-27T17:22:38;10.10;99.90
58339;DHT22;48278;52.704;6.536;2022-09-27T17:25:05;10.00;99.90
58339;DHT22;48278;52.704;6.536;2022-09-27T17:27:31;9.90;99.90
58339;DHT22;48278;52.704;6.536;2022-09-27T17:29:57;9.90;99.90
58339;DHT22;48278;52.704;6.536;2022-09-27T17:32:23;9.80;99.90
58339;DHT22;48278;52.704;6.536;2022-09-27T17:34:50;9.90;99.90
58339;DHT22;48278;52.704;6.536;2022-09-27T17:37:18;9.90;99.90
58339;DHT22;48278;52.704;6.536;2022-09-27T17:39:44;9.70;99.90
58339;DHT22;48278;52.704;6.536;2022-09-27T17:42:10;9.70;99.90
58339;DHT22;48278;52.704;6.536;2022-09-27T17:44:40;9.70;99.90
58339;DHT22;48278;52.704;6.536;2022-09-27T17:47:05;9.70;99.90
58339;DHT22;48278;52.704;6.536;2022-09-27T17:49:49;9.70;99.90
58339;DHT22;48278;52.704;6.536;2022-09-27T17:52:35;9.60;99.90
58339;DHT22;48278;52.704;6.536;2022-09-27T17:55:03;9.40;99.90
58339;DHT22;48278;52.704;6.536;2022-09-27T17:57:33;9.50;99.90
58339;DHT22;48278;52.704;6.536;2022-09-27T18:00:02;9.30;99.90
58339;DHT22;48278;52.704;6.536;2022-09-27T18:02:28;9.90;99.90
58339;DHT22;48278;52.704;6.536;2022-09-27T18:04:54;9.70;99.90
58339;DHT22;48278;52.704;6.536;2022-09-27T18:07:21;9.40;99.90
58339;DHT22;48278;52.704;6.536;2022-09-27T18:13:28;9.40;99.90
58339;DHT22;48278;52.704;6.536;2022-09-27T18:16:15;9.30;99.90
58339;DHT22;48278;52.704;6.536;2022-09-27T18:18:43;9.30;99.90
58339;DHT22;48278;52.704;6.536;2022-09-27T18:21:11;9.20;99.90
58339;DHT22;48278;52.704;6.536;2022-09-27T18:23:41;9.20;99.90
58339;DHT22;48278;52.704;6.536;2022-09-27T18:26:07;9.30;99.90
58339;DHT22;48278;52.704;6.536;2022-09-27T18:28:38;9.20;99.90
58339;DHT22;48278;52.704;6.536;2022-09-27T18:31:10;9.30;99.90
58339;DHT22;48278;52.704;6.536;2022-09-27T18:33:37;9.20;99.90
58339;DHT22;48278;52.704;6.536;2022-09-27T18:38:35;9.30;99.90
58339;DHT22;48278;52.704;6.536;2022-09-27T18:41:11;9.30;99.90
58339;DHT22;48278;52.704;6.536;2022-09-27T18:43:38;9.40;99.90
58339;DHT22;48278;52.704;6.536;2022-09-27T18:46:09;9.40;99.90
58339;DHT22;48278;52.704;6.536;2022-09-27T18:48:36;9.40;99.90
58339;DHT22;48278;52.704;6.536;2022-09-27T18:51:22;9.40;99.90
58339;DHT22;48278;52.704;6.536;2022-09-27T18:54:13;9.50;99.90
58339;DHT22;48278;52.704;6.536;2022-09-27T18:56:39;9.40;99.90
58339;DHT22;48278;52.704;6.536;2022-09-27T18:59:07;9.40;99.90
58339;DHT22;48278;52.704;6.536;2022-09-27T19:01:34;9.30;99.90
58339;DHT22;48278;52.704;6.536;2022-09-27T19:04:04;9.30;99.90
58339;DHT22;48278;52.704;6.536;2022-09-27T19:06:31;9.20;99.90
58339;DHT22;48278;52.704;6.536;2022-09-27T19:08:56;9.20;99.90
58339;DHT22;48278;52.704;6.536;2022-09-27T19:11:28;9.20;99.90
58339;DHT22;48278;52.704;6.536;2022-09-27T19:13:55;9.10;99.90
58339;DHT22;48278;52.704;6.536;2022-09-27T19:16:22;9.10;99.90
58339;DHT22;48278;52.704;6.536;2022-09-27T19:18:49;9.00;99.90